sensor_id;sensor_type;location;lat;lon;timestamp;P1;durP1;ratioP1;P2;durP2;ratioP2
20794;SDS011;28087;-33.874;151.240;2022-11-27T00:01:37;14.40;;;4.43;;
20794;SDS011;28087;-33.874;151.240;2022-11-27T00:04:14;12.02;;;3.80;;
20794;SDS011;28087;-33.874;151.240;2022-11-27T00:06:54;15.18;;;4.20;;
20794;SDS011;28087;-33.874;151.240;2022-11-27T00:09:29;16.23;;;4.10;;
20794;SDS011;28087;-33.874;151.240;2022-11-27T00:12:06;18.40;;;3.67;;
20794;SDS011;28087;-33.874;151.240;2022-11-27T00:14:42;16.95;;;4.43;;
20794;SDS011;28087;-33.874;151.240;2022-11-27T00:17:24;14.20;;;3.75;;
20794;SDS011;28087;-33.874;151.240;2022-11-27T00:20:01;15.48;;;3.90;;
20794;SDS011;28087;-33.874;151.240;2022-11-27T00:23:01;14.02;;;3.80;;
20794;SDS011;28087;-33.874;151.240;2022-11-27T00:25:38;9.77;;;3.58;;
20794;SDS011;28087;-33.874;151.240;2022-11-27T00:28:15;12.57;;;3.83;;
20794;SDS011;28087;-33.874;151.240;2022-11-27T00:30:51;16.55;;;3.78;;
20794;SDS011;28087;-33.874;151.240;2022-11-27T00:33:31;12.20;;;3.97;;
20794;SDS011;28087;-33.874;151.240;2022-11-27T00:36:09;12.90;;;3.97;;
20794;SDS011;28087;-33.874;151.240;2022-11-27T00:38:48;13.10;;;4.25;;
20794;SDS011;28087;-33.874;151.240;2022-11-27T00:41:25;17.30;;;4.32;;
20794;SDS011;28087;-33.874;151.240;2022-11-27T00:44:02;17.65;;;4.28;;
20794;SDS011;28087;-33.874;151.240;2022-11-27T00:46:42;14.30;;;3.92;;
20794;SDS011;28087;-33.874;151.240;2022-11-27T00:49:21;16.20;;;4.47;;
20794;SDS011;28087;-33.874;151.240;2022-11-27T00:51:57;12.82;;;3.83;;
20794;SDS011;28087;-33.874;151.240;2022-11-27T00:54:36;18.70;;;4.32;;
20794;SDS011;28087;-33.874;151.240;2022-11-27T00:57:12;15.40;;;4.50;;
20794;SDS011;28087;-33.874;151.240;2022-11-27T00:59:48;15.73;;;4.32;;
20794;SDS011;28087;-33.874;151.240;2022-11-27T01:02:24;14.90;;;4.38;;
20794;SDS011;28087;-33.874;151.240;2022-11-27T01:05:01;21.75;;;4.75;;
20794;SDS011;28087;-33.874;151.240;2022-11-27T01:07:39;16.20;;;4.50;;
20794;SDS011;28087;-33.874;151.240;2022-11-27T01:10:18;22.38;;;4.75;;
20794;SDS011;28087;-33.874;151.240;2022-11-27T01:12:54;16.77;;;4.43;;
20794;SDS011;28087;-33.874;151.240;2022-11-27T01:15:31;16.35;;;4.40;;
20794;SDS011;28087;-33.874;151.240;2022-11-27T01:18:07;18.13;;;4.03;;
20794;SDS011;28087;-33.874;151.240;2022-11-27T01:20:54;12.07;;;4.20;;
20794;SDS011;28087;-33.874;151.240;2022-11-27T01:23:33;21.00;;;4.43;;
20794;SDS011;28087;-33.874;151.240;2022-11-27T01:26:13;22.42;;;4.78;;
20794;SDS011;28087;-33.874;151.240;2022-11-27T01:28:59;18.92;;;4.40;;
20794;SDS011;28087;-33.874;151.240;2022-11-27T01:31:36;13.73;;;4.50;;
20794;SDS011;28087;-33.874;151.240;2022-11-27T01:34:13;18.65;;;4.78;;
20794;SDS011;28087;-33.874;151.240;2022-11-27T01:36:50;19.52;;;4.80;;
20794;SDS011;28087;-33.874;151.240;2022-11-27T01:39:27;14.55;;;4.65;;
20794;SDS011;28087;-33.874;151.240;2022-11-27T01:42:08;23.17;;;5.28;;
20794;SDS011;28087;-33.874;151.240;2022-11-27T01:44:49;24.33;;;5.60;;
20794;SDS011;28087;-33.874;151.240;2022-11-27T01:47:28;19.85;;;5.35;;
20794;SDS011;28087;-33.874;151.240;2022-11-27T01:50:13;19.35;;;4.90;;
20794;SDS011;28087;-33.874;151.240;2022-11-27T01:52:54;19.88;;;5.05;;
20794;SDS011;28087;-33.874;151.240;2022-11-27T01:55:35;19.48;;;5.43;;
20794;SDS011;28087;-33.874;151.240;2022-11-27T01:58:20;16.27;;;4.90;;
20794;SDS011;28087;-33.874;151.240;2022-11-27T02:01:08;15.75;;;4.00;;
20794;SDS011;28087;-33.874;151.240;2022-11-27T02:03:47;20.98;;;5.03;;
20794;SDS011;28087;-33.874;151.240;2022-11-27T02:06:22;17.85;;;4.70;;
20794;SDS011;28087;-33.874;151.240;2022-11-27T02:08:58;22.98;;;4.75;;
20794;SDS011;28087;-33.874;151.240;2022-11-27T02:11:41;16.13;;;4.55;;
20794;SDS011;28087;-33.874;151.240;2022-11-27T02:14:30;19.35;;;5.07;;
20794;SDS011;28087;-33.874;151.240;2022-11-27T02:17:12;17.42;;;5.13;;
20794;SDS011;28087;-33.874;151.240;2022-11-27T02:19:57;19.27;;;4.80;;
20794;SDS011;28087;-33.874;151.240;2022-11-27T02:22:56;14.25;;;4.60;;
20794;SDS011;28087;-33.874;151.240;2022-11-27T02:26:00;12.85;;;4.47;;
20794;SDS011;28087;-33.874;151.240;2022-11-27T02:29:02;15.68;;;5.00;;
20794;SDS011;28087;-33.874;151.240;2022-11-27T02:31:40;14.65;;;4.38;;
20794;SDS011;28087;-33.874;151.240;2022-11-27T02:34:21;19.40;;;5.40;;
20794;SDS011;28087;-33.874;151.240;2022-11-27T02:37:03;18.27;;;5.38;;
20794;SDS011;28087;-33.874;151.240;2022-11-27T02:39:49;15.85;;;4.38;;
20794;SDS011;28087;-33.874;151.240;2022-11-27T02:42:32;17.70;;;4.75;;
20794;SDS011;28087;-33.874;151.240;2022-11-27T02:45:16;16.88;;;4.85;;
20794;SDS011;28087;-33.874;151.240;2022-11-27T02:47:57;16.13;;;4.50;;
20794;SDS011;28087;-33.874;151.240;2022-11-27T02:50:40;14.95;;;5.15;;
20794;SDS011;28087;-33.874;151.240;2022-11-27T02:53:24;16.08;;;5.15;;
20794;SDS011;28087;-33.874;151.240;2022-11-27T02:56:09;17.35;;;5.78;;
20794;SDS011;28087;-33.874;151.240;2022-11-27T02:58:57;17.50;;;5.18;;
20794;SDS011;28087;-33.874;151.240;2022-11-27T03:01:39;19.08;;;5.47;;
20794;SDS011;28087;-33.874;151.240;2022-11-27T03:04:18;16.77;;;5.50;;
20794;SDS011;28087;-33.874;151.240;2022-11-27T03:06:58;18.20;;;5.72;;
20794;SDS011;28087;-33.874;151.240;2022-11-27T03:09:41;21.58;;;5.60;;
20794;SDS011;28087;-33.874;151.240;2022-11-27T03:12:21;20.38;;;6.20;;
20794;SDS011;28087;-33.874;151.240;2022-11-27T03:14:56;20.80;;;5.35;;
20794;SDS011;28087;-33.874;151.240;2022-11-27T03:17:43;17.70;;;5.70;;
20794;SDS011;28087;-33.874;151.240;2022-11-27T03:20:27;22.98;;;5.90;;
20794;SDS011;28087;-33.874;151.240;2022-11-27T03:23:08;21.77;;;5.90;;
20794;SDS011;28087;-33.874;151.240;2022-11-27T03:25:44;21.35;;;6.15;;
20794;SDS011;28087;-33.874;151.240;2022-11-27T03:28:21;21.30;;;6.00;;
20794;SDS011;28087;-33.874;151.240;2022-11-27T03:30:58;23.08;;;6.00;;
20794;SDS011;28087;-33.874;151.240;2022-11-27T03:33:36;19.10;;;5.88;;
20794;SDS011;28087;-33.874;151.240;2022-11-27T03:36:13;15.77;;;5.60;;
20794;SDS011;28087;-33.874;151.240;2022-11-27T03:38:52;14.98;;;5.75;;
20794;SDS011;28087;-33.874;151.240;2022-11-27T03:41:30;17.70;;;6.40;;
20794;SDS011;28087;-33.874;151.240;2022-11-27T03:44:16;15.40;;;6.10;;
20794;SDS011;28087;-33.874;151.240;2022-11-27T03:46:59;15.27;;;5.78;;
20794;SDS011;28087;-33.874;151.240;2022-11-27T03:49:50;15.68;;;5.47;;
20794;SDS011;28087;-33.874;151.240;2022-11-27T03:52:42;13.85;;;5.32;;
20794;SDS011;28087;-33.874;151.240;2022-11-27T03:55:26;14.05;;;5.25;;
20794;SDS011;28087;-33.874;151.240;2022-11-27T03:58:11;17.70;;;5.97;;
20794;SDS011;28087;-33.874;151.240;2022-11-27T04:00:53;19.58;;;5.47;;
20794;SDS011;28087;-33.874;151.240;2022-11-27T04:03:31;17.92;;;5.60;;
20794;SDS011;28087;-33.874;151.240;2022-11-27T04:06:08;15.40;;;5.22;;
20794;SDS011;28087;-33.874;151.240;2022-11-27T04:08:45;16.08;;;5.45;;
20794;SDS011;28087;-33.874;151.240;2022-11-27T04:11:23;16.60;;;5.50;;
20794;SDS011;28087;-33.874;151.240;2022-11-27T04:14:00;13.68;;;5.20;;
20794;SDS011;28087;-33.874;151.240;2022-11-27T04:16:36;16.02;;;5.38;;
20794;SDS011;28087;-33.874;151.240;2022-11-27T04:19:12;14.98;;;5.43;;
20794;SDS011;28087;-33.874;151.240;2022-11-27T04:21:52;20.92;;;5.22;;
20794;SDS011;28087;-33.874;151.240;2022-11-27T04:24:29;18.02;;;5.50;;
20794;SDS011;28087;-33.874;151.240;2022-11-27T04:27:05;19.00;;;5.82;;
20794;SDS011;28087;-33.874;151.240;2022-11-27T04:29:41;16.38;;;5.60;;
20794;SDS011;28087;-33.874;151.240;2022-11-27T04:32:18;15.45;;;5.72;;
20794;SDS011;28087;-33.874;151.240;2022-11-27T04:34:55;16.58;;;5.30;;
20794;SDS011;28087;-33.874;151.240;2022-11-27T04:37:33;13.75;;;5.13;;
20794;SDS011;28087;-33.874;151.240;2022-11-27T04:40:10;17.58;;;5.70;;
20794;SDS011;28087;-33.874;151.240;2022-11-27T04:42:48;15.73;;;5.10;;
20794;SDS011;28087;-33.874;151.240;2022-11-27T04:45:24;14.15;;;5.50;;
20794;SDS011;28087;-33.874;151.240;2022-11-27T04:48:01;14.63;;;5.10;;
20794;SDS011;28087;-33.874;151.240;2022-11-27T04:50:37;16.10;;;5.43;;
20794;SDS011;28087;-33.874;151.240;2022-11-27T04:53:17;16.35;;;5.57;;
20794;SDS011;28087;-33.874;151.240;2022-11-27T04:55:53;19.00;;;5.38;;
20794;SDS011;28087;-33.874;151.240;2022-11-27T04:58:29;15.20;;;5.50;;
20794;SDS011;28087;-33.874;151.240;2022-11-27T05:01:06;21.52;;;5.50;;
20794;SDS011;28087;-33.874;151.240;2022-11-27T05:03:43;15.75;;;5.13;;
20794;SDS011;28087;-33.874;151.240;2022-11-27T05:06:21;19.20;;;5.45;;
20794;SDS011;28087;-33.874;151.240;2022-11-27T05:08:59;23.08;;;6.20;;
20794;SDS011;28087;-33.874;151.240;2022-11-27T05:11:36;19.80;;;6.13;;
20794;SDS011;28087;-33.874;151.240;2022-11-27T05:14:13;17.58;;;5.70;;
20794;SDS011;28087;-33.874;151.240;2022-11-27T05:16:52;16.23;;;5.20;;
20794;SDS011;28087;-33.874;151.240;2022-11-27T05:19:28;11.35;;;4.72;;
20794;SDS011;28087;-33.874;151.240;2022-11-27T05:22:06;14.10;;;4.88;;
20794;SDS011;28087;-33.874;151.240;2022-11-27T05:24:44;12.18;;;5.18;;
20794;SDS011;28087;-33.874;151.240;2022-11-27T05:27:21;12.70;;;4.82;;
20794;SDS011;28087;-33.874;151.240;2022-11-27T05:29:58;15.63;;;4.88;;
20794;SDS011;28087;-33.874;151.240;2022-11-27T05:32:34;14.57;;;4.80;;
20794;SDS011;28087;-33.874;151.240;2022-11-27T05:35:11;12.68;;;5.13;;
20794;SDS011;28087;-33.874;151.240;2022-11-27T05:37:47;15.40;;;5.65;;
20794;SDS011;28087;-33.874;151.240;2022-11-27T05:40:25;13.35;;;4.85;;
20794;SDS011;28087;-33.874;151.240;2022-11-27T05:43:03;10.70;;;4.60;;
20794;SDS011;28087;-33.874;151.240;2022-11-27T05:45:40;12.13;;;4.28;;
20794;SDS011;28087;-33.874;151.240;2022-11-27T05:48:16;12.38;;;4.28;;
20794;SDS011;28087;-33.874;151.240;2022-11-27T05:50:51;13.15;;;4.88;;
20794;SDS011;28087;-33.874;151.240;2022-11-27T05:53:28;14.23;;;4.65;;
20794;SDS011;28087;-33.874;151.240;2022-11-27T05:56:07;12.57;;;4.45;;
20794;SDS011;28087;-33.874;151.240;2022-11-27T05:58:45;16.45;;;5.05;;
20794;SDS011;28087;-33.874;151.240;2022-11-27T06:01:22;14.63;;;4.68;;
20794;SDS011;28087;-33.874;151.240;2022-11-27T06:03:58;12.32;;;4.75;;
20794;SDS011;28087;-33.874;151.240;2022-11-27T06:06:35;13.68;;;4.20;;
20794;SDS011;28087;-33.874;151.240;2022-11-27T06:09:11;17.00;;;4.35;;
20794;SDS011;28087;-33.874;151.240;2022-11-27T06:11:50;12.32;;;4.15;;
20794;SDS011;28087;-33.874;151.240;2022-11-27T06:14:26;14.98;;;4.60;;
20794;SDS011;28087;-33.874;151.240;2022-11-27T06:17:05;12.80;;;4.10;;
20794;SDS011;28087;-33.874;151.240;2022-11-27T06:19:41;14.00;;;4.10;;
20794;SDS011;28087;-33.874;151.240;2022-11-27T06:22:18;13.20;;;4.07;;
20794;SDS011;28087;-33.874;151.240;2022-11-27T06:24:54;13.93;;;4.20;;
20794;SDS011;28087;-33.874;151.240;2022-11-27T06:27:33;15.50;;;4.63;;
20794;SDS011;28087;-33.874;151.240;2022-11-27T06:30:10;19.70;;;5.25;;
20794;SDS011;28087;-33.874;151.240;2022-11-27T06:32:47;26.77;;;5.97;;
20794;SDS011;28087;-33.874;151.240;2022-11-27T06:35:24;18.65;;;4.90;;
20794;SDS011;28087;-33.874;151.240;2022-11-27T06:38:01;17.48;;;4.07;;
20794;SDS011;28087;-33.874;151.240;2022-11-27T06:40:37;21.40;;;3.92;;
20794;SDS011;28087;-33.874;151.240;2022-11-27T06:43:15;18.23;;;4.95;;
20794;SDS011;28087;-33.874;151.240;2022-11-27T06:45:56;20.05;;;4.50;;
20794;SDS011;28087;-33.874;151.240;2022-11-27T06:48:34;11.25;;;4.20;;
20794;SDS011;28087;-33.874;151.240;2022-11-27T06:51:10;18.58;;;4.10;;
20794;SDS011;28087;-33.874;151.240;2022-11-27T06:53:47;12.85;;;3.53;;
20794;SDS011;28087;-33.874;151.240;2022-11-27T06:56:25;12.38;;;3.00;;
20794;SDS011;28087;-33.874;151.240;2022-11-27T06:59:05;13.35;;;3.40;;
20794;SDS011;28087;-33.874;151.240;2022-11-27T07:01:45;15.30;;;3.40;;
20794;SDS011;28087;-33.874;151.240;2022-11-27T07:04:21;13.65;;;3.80;;
20794;SDS011;28087;-33.874;151.240;2022-11-27T07:06:58;18.52;;;4.35;;
20794;SDS011;28087;-33.874;151.240;2022-11-27T07:09:35;20.45;;;4.10;;
20794;SDS011;28087;-33.874;151.240;2022-11-27T07:12:11;11.82;;;3.75;;
20794;SDS011;28087;-33.874;151.240;2022-11-27T07:14:49;17.33;;;4.55;;
20794;SDS011;28087;-33.874;151.240;2022-11-27T07:17:32;24.00;;;4.68;;
20794;SDS011;28087;-33.874;151.240;2022-11-27T07:20:09;20.02;;;4.50;;
20794;SDS011;28087;-33.874;151.240;2022-11-27T07:22:45;15.50;;;4.35;;
20794;SDS011;28087;-33.874;151.240;2022-11-27T07:25:21;16.73;;;5.20;;
20794;SDS011;28087;-33.874;151.240;2022-11-27T07:27:57;20.90;;;5.55;;
20794;SDS011;28087;-33.874;151.240;2022-11-27T07:30:37;12.10;;;4.38;;
20794;SDS011;28087;-33.874;151.240;2022-11-27T07:33:13;18.00;;;4.45;;
20794;SDS011;28087;-33.874;151.240;2022-11-27T07:35:48;13.48;;;4.57;;
20794;SDS011;28087;-33.874;151.240;2022-11-27T07:38:32;19.33;;;5.05;;
20794;SDS011;28087;-33.874;151.240;2022-11-27T07:41:09;18.35;;;4.70;;
20794;SDS011;28087;-33.874;151.240;2022-11-27T07:43:46;13.88;;;4.30;;
20794;SDS011;28087;-33.874;151.240;2022-11-27T07:46:24;17.40;;;4.63;;
20794;SDS011;28087;-33.874;151.240;2022-11-27T07:49:01;21.08;;;4.38;;
20794;SDS011;28087;-33.874;151.240;2022-11-27T07:51:38;19.15;;;4.80;;
20794;SDS011;28087;-33.874;151.240;2022-11-27T07:54:14;16.77;;;4.80;;
20794;SDS011;28087;-33.874;151.240;2022-11-27T07:56:50;19.08;;;4.25;;
20794;SDS011;28087;-33.874;151.240;2022-11-27T07:59:27;19.20;;;4.70;;
20794;SDS011;28087;-33.874;151.240;2022-11-27T08:02:06;23.42;;;4.78;;
20794;SDS011;28087;-33.874;151.240;2022-11-27T08:04:45;18.30;;;4.80;;
20794;SDS011;28087;-33.874;151.240;2022-11-27T08:07:25;16.08;;;4.60;;
20794;SDS011;28087;-33.874;151.240;2022-11-27T08:10:03;16.17;;;4.88;;
20794;SDS011;28087;-33.874;151.240;2022-11-27T08:12:40;15.00;;;5.22;;
20794;SDS011;28087;-33.874;151.240;2022-11-27T08:15:17;18.45;;;4.70;;
20794;SDS011;28087;-33.874;151.240;2022-11-27T08:17:55;17.92;;;6.57;;
20794;SDS011;28087;-33.874;151.240;2022-11-27T08:20:33;12.32;;;5.18;;
20794;SDS011;28087;-33.874;151.240;2022-11-27T08:23:10;20.77;;;5.82;;
20794;SDS011;28087;-33.874;151.240;2022-11-27T08:25:46;18.90;;;7.40;;
20794;SDS011;28087;-33.874;151.240;2022-11-27T08:28:23;27.15;;;12.55;;
20794;SDS011;28087;-33.874;151.240;2022-11-27T08:31:00;30.38;;;17.58;;
20794;SDS011;28087;-33.874;151.240;2022-11-27T08:33:40;20.33;;;9.10;;
20794;SDS011;28087;-33.874;151.240;2022-11-27T08:36:16;24.55;;;8.95;;
20794;SDS011;28087;-33.874;151.240;2022-11-27T08:38:53;24.83;;;13.90;;
20794;SDS011;28087;-33.874;151.240;2022-11-27T08:41:29;34.20;;;23.42;;
20794;SDS011;28087;-33.874;151.240;2022-11-27T08:44:06;18.92;;;7.57;;
20794;SDS011;28087;-33.874;151.240;2022-11-27T08:46:42;9.27;;;4.10;;
20794;SDS011;28087;-33.874;151.240;2022-11-27T08:49:20;9.88;;;3.67;;
20794;SDS011;28087;-33.874;151.240;2022-11-27T08:51:58;12.80;;;4.05;;
20794;SDS011;28087;-33.874;151.240;2022-11-27T08:54:34;9.68;;;3.72;;
20794;SDS011;28087;-33.874;151.240;2022-11-27T08:57:10;9.23;;;3.10;;
20794;SDS011;28087;-33.874;151.240;2022-11-27T08:59:46;8.50;;;2.78;;
20794;SDS011;28087;-33.874;151.240;2022-11-27T09:02:23;8.98;;;3.22;;
20794;SDS011;28087;-33.874;151.240;2022-11-27T09:05:01;5.78;;;2.55;;
20794;SDS011;28087;-33.874;151.240;2022-11-27T09:07:40;7.45;;;2.60;;
20794;SDS011;28087;-33.874;151.240;2022-11-27T09:10:16;4.97;;;2.40;;
20794;SDS011;28087;-33.874;151.240;2022-11-27T09:12:53;7.00;;;2.88;;
20794;SDS011;28087;-33.874;151.240;2022-11-27T09:15:30;4.80;;;2.42;;
20794;SDS011;28087;-33.874;151.240;2022-11-27T09:18:07;6.53;;;2.20;;
20794;SDS011;28087;-33.874;151.240;2022-11-27T09:20:45;4.88;;;2.10;;
20794;SDS011;28087;-33.874;151.240;2022-11-27T09:23:31;6.68;;;2.42;;
20794;SDS011;28087;-33.874;151.240;2022-11-27T09:26:09;9.30;;;2.72;;
20794;SDS011;28087;-33.874;151.240;2022-11-27T09:28:46;7.93;;;2.55;;
20794;SDS011;28087;-33.874;151.240;2022-11-27T09:31:23;5.35;;;2.40;;
20794;SDS011;28087;-33.874;151.240;2022-11-27T09:34:00;9.30;;;3.92;;
20794;SDS011;28087;-33.874;151.240;2022-11-27T09:36:39;9.30;;;4.10;;
20794;SDS011;28087;-33.874;151.240;2022-11-27T09:39:16;7.20;;;3.17;;
20794;SDS011;28087;-33.874;151.240;2022-11-27T09:41:53;5.40;;;3.22;;
20794;SDS011;28087;-33.874;151.240;2022-11-27T09:44:33;6.07;;;2.92;;
20794;SDS011;28087;-33.874;151.240;2022-11-27T09:47:16;7.07;;;2.80;;
20794;SDS011;28087;-33.874;151.240;2022-11-27T09:49:59;4.97;;;2.33;;
20794;SDS011;28087;-33.874;151.240;2022-11-27T09:52:40;4.25;;;2.15;;
20794;SDS011;28087;-33.874;151.240;2022-11-27T09:55:23;8.13;;;2.50;;
20794;SDS011;28087;-33.874;151.240;2022-11-27T09:58:05;7.63;;;3.00;;
20794;SDS011;28087;-33.874;151.240;2022-11-27T10:00:47;8.27;;;2.80;;
20794;SDS011;28087;-33.874;151.240;2022-11-27T10:03:24;7.18;;;3.60;;
20794;SDS011;28087;-33.874;151.240;2022-11-27T10:06:04;7.53;;;4.00;;
20794;SDS011;28087;-33.874;151.240;2022-11-27T10:08:55;7.38;;;3.03;;
20794;SDS011;28087;-33.874;151.240;2022-11-27T10:11:44;9.05;;;3.35;;
20794;SDS011;28087;-33.874;151.240;2022-11-27T10:14:30;8.60;;;3.35;;
20794;SDS011;28087;-33.874;151.240;2022-11-27T10:17:14;6.30;;;3.10;;
20794;SDS011;28087;-33.874;151.240;2022-11-27T10:20:04;5.68;;;2.95;;
20794;SDS011;28087;-33.874;151.240;2022-11-27T10:22:50;5.25;;;3.00;;
20794;SDS011;28087;-33.874;151.240;2022-11-27T10:25:34;7.70;;;3.10;;
20794;SDS011;28087;-33.874;151.240;2022-11-27T10:28:19;7.63;;;3.13;;
20794;SDS011;28087;-33.874;151.240;2022-11-27T10:31:02;7.20;;;3.08;;
20794;SDS011;28087;-33.874;151.240;2022-11-27T10:33:45;6.65;;;3.20;;
20794;SDS011;28087;-33.874;151.240;2022-11-27T10:36:26;13.15;;;3.20;;
20794;SDS011;28087;-33.874;151.240;2022-11-27T10:39:03;8.90;;;3.30;;
20794;SDS011;28087;-33.874;151.240;2022-11-27T10:41:50;6.32;;;2.90;;
20794;SDS011;28087;-33.874;151.240;2022-11-27T10:44:31;7.97;;;3.17;;
20794;SDS011;28087;-33.874;151.240;2022-11-27T10:47:10;7.65;;;2.75;;
20794;SDS011;28087;-33.874;151.240;2022-11-27T10:49:48;5.43;;;2.20;;
20794;SDS011;28087;-33.874;151.240;2022-11-27T10:52:25;6.18;;;2.33;;
20794;SDS011;28087;-33.874;151.240;2022-11-27T10:55:02;5.28;;;2.20;;
20794;SDS011;28087;-33.874;151.240;2022-11-27T10:57:52;6.50;;;2.13;;
20794;SDS011;28087;-33.874;151.240;2022-11-27T11:00:40;6.60;;;2.10;;
20794;SDS011;28087;-33.874;151.240;2022-11-27T11:03:17;4.93;;;2.15;;
20794;SDS011;28087;-33.874;151.240;2022-11-27T11:05:54;5.03;;;1.88;;
20794;SDS011;28087;-33.874;151.240;2022-11-27T11:09:00;4.10;;;1.80;;
20794;SDS011;28087;-33.874;151.240;2022-11-27T11:11:38;6.57;;;1.90;;
20794;SDS011;28087;-33.874;151.240;2022-11-27T11:14:17;7.68;;;2.15;;
20794;SDS011;28087;-33.874;151.240;2022-11-27T11:16:57;7.00;;;1.95;;
20794;SDS011;28087;-33.874;151.240;2022-11-27T11:19:34;4.47;;;1.92;;
20794;SDS011;28087;-33.874;151.240;2022-11-27T11:22:11;7.57;;;1.92;;
20794;SDS011;28087;-33.874;151.240;2022-11-27T11:24:50;7.70;;;2.17;;
20794;SDS011;28087;-33.874;151.240;2022-11-27T11:27:27;5.15;;;1.77;;
20794;SDS011;28087;-33.874;151.240;2022-11-27T11:30:18;5.32;;;1.90;;
20794;SDS011;28087;-33.874;151.240;2022-11-27T11:32:58;4.80;;;2.00;;
20794;SDS011;28087;-33.874;151.240;2022-11-27T11:35:36;5.65;;;1.98;;
20794;SDS011;28087;-33.874;151.240;2022-11-27T11:38:13;6.47;;;2.20;;
20794;SDS011;28087;-33.874;151.240;2022-11-27T11:41:02;4.88;;;2.20;;
20794;SDS011;28087;-33.874;151.240;2022-11-27T11:43:40;4.63;;;2.05;;
20794;SDS011;28087;-33.874;151.240;2022-11-27T11:46:28;3.95;;;1.70;;
20794;SDS011;28087;-33.874;151.240;2022-11-27T11:49:06;6.07;;;1.60;;
20794;SDS011;28087;-33.874;151.240;2022-11-27T11:52:04;4.95;;;1.70;;
20794;SDS011;28087;-33.874;151.240;2022-11-27T11:54:54;5.03;;;2.70;;
20794;SDS011;28087;-33.874;151.240;2022-11-27T12:00:53;4.38;;;2.08;;
20794;SDS011;28087;-33.874;151.240;2022-11-27T12:04:01;3.35;;;1.70;;
20794;SDS011;28087;-33.874;151.240;2022-11-27T12:06:53;6.30;;;1.52;;
20794;SDS011;28087;-33.874;151.240;2022-11-27T12:09:39;6.75;;;1.77;;
20794;SDS011;28087;-33.874;151.240;2022-11-27T12:12:27;5.18;;;1.83;;
20794;SDS011;28087;-33.874;151.240;2022-11-27T12:15:16;6.35;;;1.75;;
20794;SDS011;28087;-33.874;151.240;2022-11-27T12:17:57;4.45;;;1.60;;
20794;SDS011;28087;-33.874;151.240;2022-11-27T12:20:50;8.45;;;2.08;;
20794;SDS011;28087;-33.874;151.240;2022-11-27T12:23:39;12.40;;;2.42;;
20794;SDS011;28087;-33.874;151.240;2022-11-27T12:26:28;13.60;;;3.10;;
20794;SDS011;28087;-33.874;151.240;2022-11-27T12:29:21;21.33;;;4.43;;
20794;SDS011;28087;-33.874;151.240;2022-11-27T12:32:29;24.33;;;5.10;;
20794;SDS011;28087;-33.874;151.240;2022-11-27T12:35:31;25.38;;;5.30;;
20794;SDS011;28087;-33.874;151.240;2022-11-27T12:38:21;26.02;;;5.75;;
20794;SDS011;28087;-33.874;151.240;2022-11-27T12:41:15;26.88;;;5.47;;
20794;SDS011;28087;-33.874;151.240;2022-11-27T12:44:03;27.52;;;5.80;;
20794;SDS011;28087;-33.874;151.240;2022-11-27T12:46:51;24.02;;;5.00;;
20794;SDS011;28087;-33.874;151.240;2022-11-27T12:49:33;26.90;;;5.20;;
20794;SDS011;28087;-33.874;151.240;2022-11-27T12:52:15;28.65;;;5.82;;
20794;SDS011;28087;-33.874;151.240;2022-11-27T12:54:55;28.58;;;5.82;;
20794;SDS011;28087;-33.874;151.240;2022-11-27T12:57:43;24.10;;;5.38;;
20794;SDS011;28087;-33.874;151.240;2022-11-27T13:00:22;28.63;;;6.38;;
20794;SDS011;28087;-33.874;151.240;2022-11-27T13:03:03;24.80;;;5.50;;
20794;SDS011;28087;-33.874;151.240;2022-11-27T13:05:48;18.45;;;4.32;;
20794;SDS011;28087;-33.874;151.240;2022-11-27T13:08:32;26.90;;;5.75;;
20794;SDS011;28087;-33.874;151.240;2022-11-27T13:11:25;24.08;;;5.05;;
20794;SDS011;28087;-33.874;151.240;2022-11-27T13:14:06;24.05;;;5.47;;
20794;SDS011;28087;-33.874;151.240;2022-11-27T13:16:47;30.27;;;5.72;;
20794;SDS011;28087;-33.874;151.240;2022-11-27T13:19:27;27.90;;;5.57;;
20794;SDS011;28087;-33.874;151.240;2022-11-27T13:22:09;28.02;;;5.47;;
20794;SDS011;28087;-33.874;151.240;2022-11-27T13:24:50;29.38;;;5.35;;
20794;SDS011;28087;-33.874;151.240;2022-11-27T13:27:28;26.55;;;5.43;;
20794;SDS011;28087;-33.874;151.240;2022-11-27T13:30:07;24.25;;;5.38;;
20794;SDS011;28087;-33.874;151.240;2022-11-27T13:32:51;28.70;;;6.00;;
20794;SDS011;28087;-33.874;151.240;2022-11-27T13:35:29;24.80;;;5.80;;
20794;SDS011;28087;-33.874;151.240;2022-11-27T13:38:12;28.92;;;5.65;;
20794;SDS011;28087;-33.874;151.240;2022-11-27T13:40:56;28.90;;;5.57;;
20794;SDS011;28087;-33.874;151.240;2022-11-27T13:43:41;28.45;;;5.82;;
20794;SDS011;28087;-33.874;151.240;2022-11-27T13:46:21;27.52;;;5.70;;
20794;SDS011;28087;-33.874;151.240;2022-11-27T13:48:58;26.95;;;5.68;;
20794;SDS011;28087;-33.874;151.240;2022-11-27T13:51:36;27.83;;;5.60;;
20794;SDS011;28087;-33.874;151.240;2022-11-27T13:54:13;29.88;;;5.47;;
20794;SDS011;28087;-33.874;151.240;2022-11-27T13:57:07;24.60;;;4.85;;
20794;SDS011;28087;-33.874;151.240;2022-11-27T13:59:56;26.13;;;4.82;;
20794;SDS011;28087;-33.874;151.240;2022-11-27T14:02:41;25.77;;;4.72;;
20794;SDS011;28087;-33.874;151.240;2022-11-27T14:05:20;27.50;;;5.15;;
20794;SDS011;28087;-33.874;151.240;2022-11-27T14:08:17;30.08;;;5.15;;
20794;SDS011;28087;-33.874;151.240;2022-11-27T14:10:56;25.67;;;4.60;;
20794;SDS011;28087;-33.874;151.240;2022-11-27T14:13:35;24.85;;;4.80;;
20794;SDS011;28087;-33.874;151.240;2022-11-27T14:16:20;24.02;;;5.00;;
20794;SDS011;28087;-33.874;151.240;2022-11-27T14:19:01;22.52;;;4.55;;
20794;SDS011;28087;-33.874;151.240;2022-11-27T14:21:39;21.25;;;4.15;;
20794;SDS011;28087;-33.874;151.240;2022-11-27T14:24:24;24.92;;;4.57;;
20794;SDS011;28087;-33.874;151.240;2022-11-27T14:27:17;25.65;;;4.55;;
20794;SDS011;28087;-33.874;151.240;2022-11-27T14:29:55;30.33;;;4.97;;
20794;SDS011;28087;-33.874;151.240;2022-11-27T14:32:46;29.75;;;5.05;;
20794;SDS011;28087;-33.874;151.240;2022-11-27T14:35:23;30.20;;;5.38;;
20794;SDS011;28087;-33.874;151.240;2022-11-27T14:38:12;25.05;;;4.60;;
20794;SDS011;28087;-33.874;151.240;2022-11-27T14:40:49;29.98;;;5.07;;
20794;SDS011;28087;-33.874;151.240;2022-11-27T14:43:27;30.23;;;4.93;;
20794;SDS011;28087;-33.874;151.240;2022-11-27T14:46:03;26.30;;;4.72;;
20794;SDS011;28087;-33.874;151.240;2022-11-27T14:48:46;25.42;;;4.60;;
20794;SDS011;28087;-33.874;151.240;2022-11-27T14:51:27;28.98;;;5.15;;
20794;SDS011;28087;-33.874;151.240;2022-11-27T14:54:08;25.90;;;5.00;;
20794;SDS011;28087;-33.874;151.240;2022-11-27T14:56:47;30.77;;;5.13;;
20794;SDS011;28087;-33.874;151.240;2022-11-27T14:59:24;26.85;;;4.43;;
20794;SDS011;28087;-33.874;151.240;2022-11-27T15:02:01;27.15;;;4.78;;
20794;SDS011;28087;-33.874;151.240;2022-11-27T15:05:03;24.58;;;4.88;;
20794;SDS011;28087;-33.874;151.240;2022-11-27T15:07:41;24.30;;;4.97;;
20794;SDS011;28087;-33.874;151.240;2022-11-27T15:10:25;25.88;;;4.72;;
20794;SDS011;28087;-33.874;151.240;2022-11-27T15:13:05;31.55;;;4.65;;
20794;SDS011;28087;-33.874;151.240;2022-11-27T15:15:57;28.08;;;5.25;;
20794;SDS011;28087;-33.874;151.240;2022-11-27T15:18:37;26.38;;;4.82;;